createdAt,value
2023-03-27T00:00:03.251Z,5.40
2023-03-27T00:02:41.490Z,5.00
2023-03-27T00:05:20.625Z,5.30
2023-03-27T00:07:58.962Z,5.20
2023-03-27T00:10:36.202Z,5.20
2023-03-27T00:13:13.661Z,5.30
2023-03-27T00:15:50.357Z,5.10
2023-03-27T00:18:25.464Z,5.50
2023-03-27T00:21:05.550Z,5.50
2023-03-27T00:23:42.517Z,5.40
2023-03-27T00:26:18.351Z,5.20
2023-03-27T00:28:54.905Z,5.40
2023-03-27T00:31:31.717Z,5.10
2023-03-27T00:34:06.109Z,4.90
2023-03-27T00:36:45.090Z,5.30
2023-03-27T00:39:23.303Z,5.50
2023-03-27T00:42:05.411Z,5.50
2023-03-27T00:44:43.822Z,4.90
2023-03-27T00:47:23.032Z,5.30
2023-03-27T00:50:02.435Z,5.30
2023-03-27T00:52:37.910Z,5.20
2023-03-27T00:55:20.073Z,5.60
2023-03-27T00:58:02.096Z,5.40
2023-03-27T01:03:14.284Z,5.20
2023-03-27T01:05:51.588Z,5.20
2023-03-27T01:08:29.372Z,5.10
2023-03-27T01:11:20.383Z,5.60
2023-03-27T01:14:12.335Z,5.00
2023-03-27T01:16:59.338Z,5.30
2023-03-27T01:20:10.445Z,5.40
2023-03-27T01:23:09.478Z,5.60
2023-03-27T01:26:35.709Z,5.30
2023-03-27T01:29:25.284Z,5.30
2023-03-27T01:32:42.768Z,5.60
2023-03-27T01:35:58.671Z,5.50
2023-03-27T01:39:14.470Z,5.60
2023-03-27T01:42:00.010Z,5.40
2023-03-27T01:44:46.971Z,5.50
2023-03-27T01:47:32.459Z,5.40
2023-03-27T01:50:14.548Z,5.60
2023-03-27T01:52:55.717Z,5.40
2023-03-27T01:55:32.966Z,5.50
2023-03-27T01:58:15.812Z,5.60
2023-03-27T02:00:53.768Z,5.50
2023-03-27T02:03:34.919Z,5.60
2023-03-27T02:06:14.437Z,5.70
2023-03-27T02:08:55.262Z,5.30
2023-03-27T02:11:38.730Z,5.40
2023-03-27T02:17:02.216Z,5.20
2023-03-27T02:19:44.455Z,5.10
2023-03-27T02:22:37.906Z,5.20
2023-03-27T02:25:28.851Z,5.30
2023-03-27T02:28:29.233Z,5.00
2023-03-27T02:31:33.102Z,5.30
2023-03-27T02:34:44.908Z,5.10
2023-03-27T02:37:32.895Z,5.30
2023-03-27T02:40:23.023Z,5.40
2023-03-27T02:43:06.730Z,5.20
2023-03-27T02:45:52.541Z,5.30
2023-03-27T02:48:34.212Z,5.00
2023-03-27T02:51:13.492Z,4.90
2023-03-27T02:53:56.613Z,5.20
2023-03-27T02:56:39.800Z,5.20
2023-03-27T02:59:23.580Z,5.30
2023-03-27T03:04:41.717Z,5.00
2023-03-27T03:07:17.705Z,4.90
2023-03-27T03:09:57.905Z,5.30
2023-03-27T03:12:36.276Z,5.10
2023-03-27T03:15:12.884Z,5.30
2023-03-27T03:17:51.035Z,5.10
2023-03-27T03:20:26.751Z,5.20
2023-03-27T03:23:05.073Z,5.10
2023-03-27T03:25:43.111Z,5.00
2023-03-27T03:28:22.229Z,5.00
2023-03-27T03:31:04.769Z,5.20
2023-03-27T03:33:42.152Z,5.20
2023-03-27T03:36:16.953Z,5.60
2023-03-27T03:38:51.917Z,5.20
2023-03-27T03:41:31.477Z,4.90
2023-03-27T03:44:08.381Z,5.10
2023-03-27T03:46:43.309Z,5.00
2023-03-27T03:49:17.903Z,5.30
2023-03-27T03:52:03.574Z,5.60
2023-03-27T03:54:41.984Z,5.10
2023-03-27T03:57:17.611Z,5.00
2023-03-27T03:59:53.476Z,5.10
2023-03-27T04:02:32.134Z,4.90
2023-03-27T04:05:11.858Z,5.10
2023-03-27T04:07:49.938Z,4.70
2023-03-27T04:10:26.704Z,5.30
2023-03-27T04:13:03.984Z,4.80
2023-03-27T04:15:37.884Z,5.30
2023-03-27T04:18:12.703Z,5.00
2023-03-27T04:20:49.667Z,5.00
2023-03-27T04:23:23.542Z,5.20
2023-03-27T04:26:03.360Z,5.10
2023-03-27T04:28:39.327Z,5.30
2023-03-27T04:31:18.660Z,5.10
2023-03-27T04:33:58.150Z,5.30
2023-03-27T04:36:37.550Z,5.40
2023-03-27T04:39:11.233Z,5.20
2023-03-27T04:41:51.136Z,5.50
2023-03-27T04:44:32.206Z,5.90
2023-03-27T04:47:12.438Z,5.80
2023-03-27T04:49:52.017Z,5.60
2023-03-27T04:52:29.672Z,5.50
2023-03-27T04:55:07.341Z,5.20
2023-03-27T04:57:42.307Z,5.40
2023-03-27T05:00:19.382Z,5.40
2023-03-27T05:02:58.681Z,5.50
2023-03-27T05:05:34.904Z,5.60
2023-03-27T05:08:09.788Z,5.50
2023-03-27T05:10:46.816Z,5.60
2023-03-27T05:13:25.753Z,5.20
2023-03-27T05:16:06.913Z,5.20
2023-03-27T05:18:47.123Z,5.00
2023-03-27T05:21:26.260Z,5.20
2023-03-27T05:24:03.087Z,5.20
2023-03-27T05:26:40.270Z,5.50
2023-03-27T05:29:19.376Z,5.50
2023-03-27T05:31:56.351Z,5.00
2023-03-27T05:34:33.454Z,5.30
2023-03-27T05:37:11.567Z,5.20
2023-03-27T05:39:46.749Z,5.10
2023-03-27T05:42:27.676Z,5.40
2023-03-27T05:45:05.776Z,5.30
2023-03-27T05:47:48.835Z,5.50
2023-03-27T05:50:26.492Z,5.50
2023-03-27T05:53:01.422Z,5.00
2023-03-27T05:55:37.161Z,5.30
2023-03-27T05:58:13.487Z,5.00
2023-03-27T06:00:51.320Z,5.30
2023-03-27T06:03:30.326Z,5.10
2023-03-27T06:06:10.137Z,5.10
2023-03-27T06:08:48.021Z,5.00
2023-03-27T06:11:25.817Z,5.00
2023-03-27T06:14:01.763Z,5.10
2023-03-27T06:16:35.076Z,4.80
2023-03-27T06:19:09.425Z,5.00
2023-03-27T06:21:45.138Z,5.00
2023-03-27T06:24:19.548Z,5.10
2023-03-27T06:26:53.000Z,5.30
2023-03-27T06:29:30.544Z,4.80
2023-03-27T06:32:06.364Z,4.70
2023-03-27T06:34:42.269Z,4.80
2023-03-27T06:37:25.097Z,5.00
2023-03-27T06:40:03.699Z,5.10
2023-03-27T06:42:40.742Z,5.40
2023-03-27T06:45:15.971Z,5.10
2023-03-27T06:48:16.859Z,5.20
2023-03-27T06:53:28.553Z,4.90
2023-03-27T06:56:07.043Z,5.00
2023-03-27T06:58:47.412Z,4.80
2023-03-27T07:01:24.139Z,4.80
2023-03-27T07:04:01.634Z,4.90
2023-03-27T07:06:39.711Z,4.90
2023-03-27T07:09:18.315Z,4.90
2023-03-27T07:11:55.540Z,4.90
2023-03-27T07:14:36.201Z,4.80
2023-03-27T07:17:14.632Z,4.60
2023-03-27T07:19:50.582Z,4.90
2023-03-27T07:22:29.718Z,4.40
2023-03-27T07:25:05.151Z,4.80
2023-03-27T07:27:43.794Z,4.40
2023-03-27T07:30:19.467Z,4.40
2023-03-27T07:32:58.210Z,4.10
2023-03-27T07:35:35.561Z,3.90
2023-03-27T07:38:13.833Z,4.00
2023-03-27T07:40:50.676Z,4.00
2023-03-27T07:43:25.445Z,3.60
2023-03-27T07:46:06.132Z,3.80
2023-03-27T07:48:45.855Z,3.90
2023-03-27T07:51:26.775Z,3.60
2023-03-27T07:56:41.829Z,3.50
2023-03-27T07:59:21.658Z,3.40
2023-03-27T08:01:56.191Z,3.20
2023-03-27T08:04:31.742Z,3.50
2023-03-27T08:07:07.516Z,3.50
2023-03-27T08:09:43.029Z,3.20
2023-03-27T08:12:17.800Z,3.30
2023-03-27T08:14:56.553Z,3.30
2023-03-27T08:17:32.408Z,3.30
2023-03-27T08:20:10.083Z,3.20
2023-03-27T08:22:45.645Z,6.70
2023-03-27T08:25:22.754Z,4.50
2023-03-27T08:27:57.723Z,4.60
2023-03-27T08:30:35.325Z,8.10
2023-03-27T08:33:09.730Z,7.60
2023-03-27T08:35:43.029Z,6.40
2023-03-27T08:38:26.091Z,5.80
2023-03-27T08:41:06.817Z,5.30
2023-03-27T08:43:48.576Z,5.50
2023-03-27T08:46:29.131Z,5.40
2023-03-27T08:49:15.212Z,5.10
2023-03-27T08:51:54.001Z,4.90
2023-03-27T08:54:32.885Z,5.20
2023-03-27T08:57:24.776Z,5.10
2023-03-27T09:00:10.550Z,4.70
2023-03-27T09:02:55.224Z,4.90
2023-03-27T09:05:40.509Z,4.80
2023-03-27T09:08:24.968Z,4.50
2023-03-27T09:11:06.424Z,4.30
2023-03-27T09:13:46.809Z,4.10
2023-03-27T09:16:28.830Z,4.30
2023-03-27T09:19:12.088Z,4.00
2023-03-27T09:21:50.200Z,4.00
2023-03-27T09:24:32.941Z,4.20
2023-03-27T09:27:19.388Z,3.70
2023-03-27T09:30:05.684Z,4.00
2023-03-27T09:32:41.798Z,3.80
2023-03-27T09:35:19.028Z,3.80
2023-03-27T09:37:58.397Z,3.50
2023-03-27T09:40:37.480Z,3.40
2023-03-27T09:43:17.491Z,3.50
2023-03-27T09:45:52.776Z,3.50
2023-03-27T09:48:36.900Z,3.40
2023-03-27T09:51:44.021Z,3.40
2023-03-27T09:54:19.861Z,3.20
2023-03-27T09:57:00.043Z,3.20
2023-03-27T09:59:37.863Z,3.40
2023-03-27T10:02:25.043Z,3.20
2023-03-27T10:05:13.385Z,3.50
2023-03-27T10:07:49.867Z,2.90
2023-03-27T10:10:25.357Z,3.00
2023-03-27T10:13:02.456Z,2.80
2023-03-27T10:15:38.938Z,3.00
2023-03-27T10:18:28.150Z,2.80
2023-03-27T10:21:09.149Z,2.70
2023-03-27T10:23:49.694Z,2.70
2023-03-27T10:26:29.662Z,2.50
2023-03-27T10:29:24.643Z,2.70
2023-03-27T10:32:00.761Z,2.30
2023-03-27T10:34:38.476Z,2.50
2023-03-27T10:37:29.146Z,2.40
2023-03-27T10:40:09.390Z,2.40
2023-03-27T10:42:44.740Z,2.50
2023-03-27T10:45:22.413Z,2.40
2023-03-27T10:48:01.356Z,2.50
2023-03-27T10:50:40.225Z,2.30
2023-03-27T10:53:22.005Z,2.70
2023-03-27T10:56:04.329Z,2.60
2023-03-27T10:58:45.412Z,2.60
2023-03-27T11:01:28.348Z,2.70
2023-03-27T11:04:10.092Z,2.50
2023-03-27T11:06:47.599Z,2.60
2023-03-27T11:09:27.411Z,2.70
2023-03-27T11:12:07.543Z,2.50
2023-03-27T11:14:49.837Z,2.30
2023-03-27T11:17:29.889Z,2.20
2023-03-27T11:20:08.414Z,2.10
2023-03-27T11:22:47.833Z,2.20
2023-03-27T11:25:41.017Z,2.30
2023-03-27T11:28:24.839Z,2.10
2023-03-27T11:31:11.930Z,2.40
2023-03-27T11:33:52.609Z,2.10
2023-03-27T11:36:40.635Z,2.10
2023-03-27T11:39:30.018Z,2.00
2023-03-27T11:42:15.521Z,2.00
2023-03-27T11:44:49.058Z,1.80
2023-03-27T11:47:47.720Z,2.20
2023-03-27T11:50:32.214Z,2.10
2023-03-27T11:53:27.878Z,1.90
2023-03-27T11:56:31.874Z,1.90
2023-03-27T11:59:22.473Z,1.80
2023-03-27T12:02:07.396Z,1.60
2023-03-27T12:04:54.653Z,1.80
2023-03-27T12:07:47.709Z,1.60
2023-03-27T12:10:32.873Z,1.50
2023-03-27T12:13:41.345Z,1.70
2023-03-27T12:16:52.868Z,1.60
2023-03-27T12:19:52.936Z,1.60
2023-03-27T12:22:39.921Z,1.40
2023-03-27T12:25:50.210Z,1.50
2023-03-27T12:28:42.659Z,1.60
2023-03-27T12:31:37.091Z,1.40
2023-03-27T12:34:34.918Z,1.60
2023-03-27T12:37:16.796Z,1.40
2023-03-27T12:39:55.519Z,1.60
2023-03-27T12:42:44.971Z,1.60
2023-03-27T12:45:24.512Z,1.40
2023-03-27T12:48:21.942Z,1.60
2023-03-27T12:51:03.069Z,1.50
2023-03-27T12:53:52.519Z,1.60
2023-03-27T12:56:45.120Z,1.60
2023-03-27T12:59:27.056Z,1.90
2023-03-27T13:02:37.354Z,1.60
2023-03-27T13:05:53.303Z,1.50
2023-03-27T13:08:56.036Z,1.70
2023-03-27T13:11:49.502Z,1.70
2023-03-27T13:14:45.206Z,1.60
2023-03-27T13:17:44.221Z,1.60
2023-03-27T13:20:35.901Z,1.40
2023-03-27T13:23:35.392Z,1.60
2023-03-27T13:26:28.437Z,1.60
2023-03-27T13:29:03.427Z,1.40
2023-03-27T13:32:01.724Z,1.50
2023-03-27T13:34:45.385Z,1.30
2023-03-27T13:37:48.973Z,1.70
2023-03-27T13:40:31.838Z,1.70
2023-03-27T13:43:15.565Z,1.50
2023-03-27T13:45:52.997Z,1.50
2023-03-27T13:48:56.886Z,1.50
2023-03-27T13:51:57.511Z,1.40
2023-03-27T13:54:59.122Z,1.40
2023-03-27T13:58:03.775Z,1.40
2023-03-27T14:00:58.753Z,1.30
2023-03-27T14:04:20.905Z,1.50
2023-03-27T14:07:25.373Z,1.30
2023-03-27T14:10:24.513Z,1.60
2023-03-27T14:13:12.458Z,1.30
2023-03-27T14:16:12.282Z,1.30
2023-03-27T14:19:04.900Z,1.40
2023-03-27T14:21:56.272Z,1.50
2023-03-27T14:24:39.332Z,1.40
2023-03-27T14:27:18.488Z,3.40
2023-03-27T14:30:07.162Z,7.40
2023-03-27T14:32:41.017Z,5.80
2023-03-27T14:35:32.166Z,5.00
2023-03-27T14:38:17.024Z,3.90
2023-03-27T14:40:52.601Z,3.90
2023-03-27T14:43:30.303Z,3.30
2023-03-27T14:46:06.943Z,3.20
2023-03-27T14:48:43.689Z,2.90
2023-03-27T14:51:21.109Z,2.70
2023-03-27T14:54:00.918Z,2.50
2023-03-27T14:56:41.391Z,2.10
2023-03-27T14:59:24.831Z,2.00
2023-03-27T15:02:02.418Z,2.40
2023-03-27T15:04:41.254Z,1.90
2023-03-27T15:07:20.584Z,1.90
2023-03-27T15:10:22.318Z,1.80
2023-03-27T15:12:56.562Z,1.80
2023-03-27T15:15:39.701Z,1.70
2023-03-27T15:18:19.149Z,1.80
2023-03-27T15:20:56.681Z,1.70
2023-03-27T15:23:39.858Z,1.70
2023-03-27T15:26:20.360Z,1.60
2023-03-27T15:29:04.134Z,1.60
2023-03-27T15:31:38.749Z,1.50
2023-03-27T15:34:20.984Z,1.60
2023-03-27T15:36:59.998Z,1.80
2023-03-27T15:39:38.268Z,1.50
2023-03-27T15:42:20.062Z,1.50
2023-03-27T15:44:59.407Z,1.50
2023-03-27T15:47:35.230Z,1.40
2023-03-27T15:50:22.580Z,1.40
2023-03-27T15:52:58.728Z,1.60
2023-03-27T15:55:40.623Z,1.30
2023-03-27T16:01:02.851Z,1.60
2023-03-27T16:03:53.413Z,1.50
2023-03-27T16:06:33.845Z,1.60
2023-03-27T16:09:23.573Z,1.50
2023-03-27T16:11:58.673Z,1.50
2023-03-27T16:14:36.224Z,1.60
2023-03-27T16:17:22.495Z,1.50
2023-03-27T16:19:59.192Z,1.50
2023-03-27T16:22:35.902Z,1.40
2023-03-27T16:25:13.168Z,1.50
2023-03-27T16:27:51.811Z,1.40
2023-03-27T16:30:36.166Z,1.50
2023-03-27T16:33:17.442Z,1.30
2023-03-27T16:35:54.224Z,1.30
2023-03-27T16:38:28.770Z,1.60
2023-03-27T16:41:02.285Z,1.50
2023-03-27T16:43:35.917Z,1.40
2023-03-27T16:46:14.734Z,1.50
2023-03-27T16:48:51.137Z,1.40
2023-03-27T16:51:27.531Z,1.30
2023-03-27T16:54:02.994Z,1.50
2023-03-27T16:56:39.198Z,1.40
2023-03-27T16:59:13.853Z,1.80
2023-03-27T17:01:48.613Z,1.30
2023-03-27T17:04:23.695Z,1.30
2023-03-27T17:07:02.539Z,1.30
2023-03-27T17:09:37.248Z,1.40
2023-03-27T17:12:11.574Z,1.40
2023-03-27T17:14:44.872Z,1.40
2023-03-27T17:17:20.598Z,1.30
2023-03-27T17:19:57.531Z,1.40
2023-03-27T17:22:34.702Z,1.70
2023-03-27T17:25:11.293Z,1.20
2023-03-27T17:27:45.695Z,1.20
2023-03-27T17:30:36.613Z,1.30
2023-03-27T17:33:15.359Z,1.30
2023-03-27T17:35:54.021Z,1.50
2023-03-27T17:38:31.134Z,1.40
2023-03-27T17:41:08.443Z,2.00
2023-03-27T17:43:45.348Z,1.50
2023-03-27T17:46:22.062Z,1.40
2023-03-27T17:48:58.169Z,1.40
2023-03-27T17:51:36.584Z,1.30
2023-03-27T17:54:13.940Z,1.40
2023-03-27T17:56:50.176Z,1.50
2023-03-27T17:59:29.887Z,1.40
2023-03-27T18:02:09.703Z,1.50
2023-03-27T18:04:44.275Z,1.50
2023-03-27T18:07:19.207Z,1.80
2023-03-27T18:09:58.288Z,2.00
2023-03-27T18:12:37.792Z,1.90
2023-03-27T18:15:14.058Z,1.80
2023-03-27T18:17:51.543Z,2.20
2023-03-27T18:20:25.161Z,2.90
2023-03-27T18:22:58.498Z,2.80
2023-03-27T18:25:33.998Z,2.70
2023-03-27T18:28:07.857Z,2.50
2023-03-27T18:30:46.215Z,2.50
2023-03-27T18:33:24.338Z,2.40
2023-03-27T18:35:59.795Z,2.30
2023-03-27T18:38:37.631Z,2.70
2023-03-27T18:41:12.769Z,2.40
2023-03-27T18:43:49.738Z,2.50
2023-03-27T18:46:28.276Z,2.50
2023-03-27T18:49:13.676Z,2.70
2023-03-27T18:51:58.690Z,2.40
2023-03-27T18:54:37.495Z,2.60
2023-03-27T18:57:19.856Z,2.60
2023-03-27T19:02:34.048Z,2.90
2023-03-27T19:05:12.973Z,2.60
2023-03-27T19:07:51.180Z,2.70
2023-03-27T19:10:24.965Z,2.40
2023-03-27T19:13:03.261Z,2.60
2023-03-27T19:15:40.796Z,2.60
2023-03-27T19:18:20.989Z,2.70
2023-03-27T19:20:59.994Z,2.60
2023-03-27T19:23:38.567Z,2.60
2023-03-27T19:26:14.846Z,2.60
2023-03-27T19:28:50.036Z,2.60
2023-03-27T19:31:29.296Z,2.50
2023-03-27T19:34:06.551Z,2.50
2023-03-27T19:36:42.807Z,2.30
2023-03-27T19:39:20.861Z,2.30
2023-03-27T19:42:00.142Z,2.00
2023-03-27T19:44:38.110Z,2.20
2023-03-27T19:47:15.495Z,2.30
2023-03-27T19:49:51.411Z,2.30
2023-03-27T19:52:30.352Z,2.30
2023-03-27T19:55:08.054Z,2.00
2023-03-27T19:57:47.152Z,2.30
2023-03-27T20:00:21.872Z,2.30
2023-03-27T20:02:58.299Z,2.20
2023-03-27T20:05:41.367Z,2.20
2023-03-27T20:08:22.082Z,1.90
2023-03-27T20:10:59.205Z,2.30
2023-03-27T20:13:42.488Z,2.00
2023-03-27T20:16:27.552Z,2.00
2023-03-27T20:19:04.576Z,2.30
2023-03-27T20:21:45.309Z,2.20
2023-03-27T20:24:21.940Z,2.00
2023-03-27T20:27:01.093Z,2.00
2023-03-27T20:29:40.280Z,2.00
2023-03-27T20:32:17.723Z,2.10
2023-03-27T20:34:54.808Z,2.50
2023-03-27T20:37:31.584Z,1.90
2023-03-27T20:40:13.899Z,1.90
2023-03-27T20:42:55.773Z,2.50
2023-03-27T20:45:32.768Z,1.90
2023-03-27T20:48:08.887Z,1.90
2023-03-27T20:50:49.226Z,1.60
2023-03-27T20:53:26.178Z,2.10
2023-03-27T20:56:06.674Z,1.80
2023-03-27T20:58:44.313Z,1.80
2023-03-27T21:01:20.357Z,1.90
2023-03-27T21:03:59.772Z,2.20
2023-03-27T21:06:34.277Z,1.90
2023-03-27T21:09:15.740Z,1.90
2023-03-27T21:11:50.655Z,1.80
2023-03-27T21:14:28.539Z,1.80
2023-03-27T21:17:03.223Z,1.70
2023-03-27T21:19:39.348Z,1.80
2023-03-27T21:22:14.364Z,2.00
2023-03-27T21:24:49.470Z,1.70
2023-03-27T21:27:23.295Z,1.70
2023-03-27T21:29:59.492Z,1.60
2023-03-27T21:32:34.009Z,1.60
2023-03-27T21:35:08.466Z,1.80
2023-03-27T21:37:44.723Z,1.80
2023-03-27T21:40:22.793Z,1.90
2023-03-27T21:42:59.791Z,1.70
2023-03-27T21:45:37.896Z,1.80
2023-03-27T21:48:13.276Z,1.80
2023-03-27T21:50:47.768Z,2.20
2023-03-27T21:53:25.515Z,1.80
2023-03-27T21:56:00.781Z,1.90
2023-03-27T21:58:36.385Z,2.10
2023-03-27T22:01:10.911Z,2.20
2023-03-27T22:03:48.261Z,2.20
2023-03-27T22:06:26.476Z,2.10
2023-03-27T22:09:01.516Z,2.20
2023-03-27T22:11:37.059Z,1.90
2023-03-27T22:14:14.144Z,2.00
2023-03-27T22:16:48.878Z,2.00
2023-03-27T22:19:24.297Z,2.10
2023-03-27T22:22:06.111Z,2.10
2023-03-27T22:24:44.298Z,2.50
2023-03-27T22:27:18.948Z,2.70
2023-03-27T22:29:56.314Z,2.60
2023-03-27T22:32:31.728Z,2.60
2023-03-27T22:35:06.999Z,2.90
2023-03-27T22:37:43.590Z,2.70
2023-03-27T22:40:18.990Z,2.60
2023-03-27T22:42:55.008Z,2.60
2023-03-27T22:45:34.428Z,2.90
2023-03-27T22:48:10.076Z,2.80
2023-03-27T22:50:46.988Z,2.80
2023-03-27T22:53:24.174Z,2.80
2023-03-27T22:56:01.607Z,2.70
2023-03-27T22:58:38.502Z,2.70
2023-03-27T23:01:15.381Z,2.70
2023-03-27T23:03:52.283Z,3.10
2023-03-27T23:06:29.447Z,2.60
2023-03-27T23:09:03.819Z,3.20
2023-03-27T23:11:41.604Z,3.00
2023-03-27T23:14:18.586Z,2.90
2023-03-27T23:16:55.698Z,2.70
2023-03-27T23:19:30.671Z,2.60
2023-03-27T23:22:08.675Z,2.90
2023-03-27T23:24:46.757Z,2.70
2023-03-27T23:27:25.303Z,2.60
2023-03-27T23:30:01.499Z,2.70
2023-03-27T23:32:38.685Z,2.80
2023-03-27T23:35:15.135Z,3.10
2023-03-27T23:37:48.907Z,3.00
2023-03-27T23:40:23.465Z,3.10
2023-03-27T23:43:00.465Z,3.10
2023-03-27T23:45:41.129Z,2.90
2023-03-27T23:48:16.776Z,3.20
2023-03-27T23:50:52.059Z,2.90
2023-03-27T23:53:28.735Z,3.00
2023-03-27T23:56:06.095Z,3.00
2023-03-27T23:58:45.285Z,3.10
